createdAt,value
2022-09-04T00:01:59.530Z,37.03
2022-09-04T00:04:55.531Z,37.02
2022-09-04T00:07:54.312Z,36.85
2022-09-04T00:10:48.760Z,37.04
2022-09-04T00:13:44.065Z,37.27
2022-09-04T00:16:37.181Z,37.05
2022-09-04T00:19:29.665Z,37.16
2022-09-04T00:22:28.047Z,36.98
2022-09-04T00:25:21.482Z,37.02
2022-09-04T00:28:26.930Z,36.91
2022-09-04T00:31:25.858Z,36.88
2022-09-04T00:34:23.447Z,37.12
2022-09-04T00:37:13.896Z,37.10
2022-09-04T00:40:05.600Z,37.18
2022-09-04T00:43:20.265Z,37.01
2022-09-04T00:46:25.338Z,37.10
2022-09-04T00:49:30.089Z,37.16
2022-09-04T00:52:36.777Z,36.92
2022-09-04T00:55:40.466Z,37.06
2022-09-04T00:58:35.815Z,37.03
2022-09-04T01:01:27.938Z,37.05
2022-09-04T01:04:25.267Z,37.14
2022-09-04T01:07:26.779Z,36.89
2022-09-04T01:10:29.722Z,37.10
2022-09-04T01:13:25.431Z,37.17
2022-09-04T01:16:19.107Z,37.14
2022-09-04T01:19:22.741Z,37.14
2022-09-04T01:22:25.675Z,36.96
2022-09-04T01:25:23.209Z,36.97
2022-09-04T01:28:18.656Z,37.00
2022-09-04T01:31:18.448Z,37.09
2022-09-04T01:34:19.242Z,37.22
2022-09-04T01:37:18.423Z,36.96
2022-09-04T01:40:35.623Z,37.00
2022-09-04T01:43:26.429Z,37.00
2022-09-04T01:46:25.998Z,37.15
2022-09-04T01:49:21.807Z,37.03
2022-09-04T01:52:27.940Z,37.29
2022-09-04T01:55:21.575Z,37.06
2022-09-04T01:58:18.369Z,36.98
2022-09-04T02:01:15.797Z,37.21
2022-09-04T02:04:18.290Z,36.94
2022-09-04T02:07:15.396Z,37.17
2022-09-04T02:10:12.861Z,37.02
2022-09-04T02:13:12.268Z,37.15
2022-09-04T02:16:11.326Z,37.26
2022-09-04T02:19:04.991Z,37.22
2022-09-04T02:22:01.031Z,37.05
2022-09-04T02:24:53.158Z,37.06
2022-09-04T02:27:50.506Z,37.07
2022-09-04T02:30:43.699Z,37.25
2022-09-04T02:33:40.329Z,37.23
2022-09-04T02:36:33.846Z,37.11
2022-09-04T02:39:31.138Z,37.19
2022-09-04T02:42:25.730Z,37.08
2022-09-04T02:45:22.685Z,37.35
2022-09-04T02:48:16.098Z,37.25
2022-09-04T02:51:21.127Z,36.99
2022-09-04T02:54:14.157Z,37.04
2022-09-04T02:57:09.253Z,37.43
2022-09-04T03:00:07.095Z,37.07
2022-09-04T03:03:02.469Z,37.37
2022-09-04T03:05:55.239Z,37.31
2022-09-04T03:08:49.911Z,37.13
2022-09-04T03:11:46.858Z,37.36
2022-09-04T03:14:39.911Z,37.30
2022-09-04T03:17:34.870Z,37.15
2022-09-04T03:20:25.336Z,37.29
2022-09-04T03:23:19.103Z,37.31
2022-09-04T03:26:18.045Z,37.36
2022-09-04T03:29:12.078Z,37.24
2022-09-04T03:32:15.964Z,37.28
2022-09-04T03:35:09.381Z,37.36
2022-09-04T03:38:10.559Z,37.24
2022-09-04T03:41:04.366Z,37.42
2022-09-04T03:44:01.927Z,37.41
2022-09-04T03:46:58.885Z,37.27
2022-09-04T03:49:55.218Z,37.34
2022-09-04T03:52:50.109Z,37.21
2022-09-04T03:56:16.331Z,37.32
2022-09-04T03:59:08.318Z,36.96
2022-09-04T04:02:02.503Z,37.44
2022-09-04T04:05:15.477Z,37.42
2022-09-04T04:08:20.220Z,37.37
2022-09-04T04:11:24.240Z,37.45
2022-09-04T04:14:30.907Z,37.44
2022-09-04T04:17:31.457Z,37.49
2022-09-04T04:20:27.581Z,37.30
2022-09-04T04:23:39.562Z,37.22
2022-09-04T04:26:40.541Z,37.23
2022-09-04T04:29:51.553Z,37.38
2022-09-04T04:33:13.976Z,37.14
2022-09-04T04:36:10.133Z,37.20
2022-09-04T04:39:15.813Z,37.10
2022-09-04T04:42:12.983Z,37.10
2022-09-04T04:45:40.863Z,37.27
2022-09-04T04:49:08.051Z,37.22
2022-09-04T04:52:25.676Z,37.43
2022-09-04T04:55:21.387Z,37.49
2022-09-04T04:58:26.115Z,37.36
2022-09-04T05:01:25.596Z,37.44
2022-09-04T05:04:23.234Z,37.50
2022-09-04T05:07:20.483Z,37.37
2022-09-04T05:10:17.835Z,37.35
2022-09-04T05:13:13.467Z,37.50
2022-09-04T05:16:09.265Z,37.65
2022-09-04T05:19:03.085Z,37.64
2022-09-04T05:21:55.397Z,37.85
2022-09-04T05:24:51.906Z,37.82
2022-09-04T05:27:50.449Z,37.51
2022-09-04T05:30:45.535Z,37.66
2022-09-04T05:33:40.263Z,37.69
2022-09-04T05:36:36.632Z,37.98
2022-09-04T05:39:30.673Z,37.91
2022-09-04T05:42:40.667Z,37.93
2022-09-04T05:45:39.027Z,37.86
2022-09-04T05:48:31.772Z,38.00
2022-09-04T05:51:46.999Z,37.82
2022-09-04T05:54:48.329Z,38.04
2022-09-04T05:57:46.216Z,37.91
2022-09-04T06:00:42.552Z,38.05
2022-09-04T06:03:48.785Z,38.07
2022-09-04T06:06:41.941Z,38.11
2022-09-04T06:09:41.701Z,38.22
2022-09-04T06:12:48.428Z,38.20
2022-09-04T06:15:46.712Z,38.18
2022-09-04T06:18:51.145Z,38.09
2022-09-04T06:22:15.801Z,38.00
2022-09-04T06:25:22.394Z,38.17
2022-09-04T06:28:25.453Z,38.25
2022-09-04T06:31:34.030Z,38.11
2022-09-04T06:34:33.582Z,38.20
2022-09-04T06:37:31.593Z,38.12
2022-09-04T06:40:31.909Z,37.81
2022-09-04T06:43:29.695Z,38.16
2022-09-04T06:46:26.857Z,38.17
2022-09-04T06:49:19.137Z,37.79
2022-09-04T06:52:16.193Z,37.97
2022-09-04T06:55:11.747Z,37.91
2022-09-04T06:58:15.674Z,38.09
2022-09-04T07:01:08.886Z,37.98
2022-09-04T07:04:07.968Z,37.88
2022-09-04T07:07:06.930Z,38.03
2022-09-04T07:10:01.485Z,38.12
2022-09-04T07:13:36.962Z,38.12
2022-09-04T07:16:41.212Z,37.92
2022-09-04T07:19:44.194Z,38.00
2022-09-04T07:22:47.955Z,38.18
2022-09-04T07:25:42.655Z,37.64
2022-09-04T07:28:40.324Z,38.00
2022-09-04T07:31:33.148Z,38.07
2022-09-04T07:34:25.829Z,37.91
2022-09-04T07:37:25.034Z,37.89
2022-09-04T07:40:16.829Z,37.90
2022-09-04T07:43:09.963Z,37.84
2022-09-04T07:46:05.384Z,37.95
2022-09-04T07:48:56.930Z,38.08
2022-09-04T07:51:49.993Z,37.81
2022-09-04T07:54:53.378Z,38.10
2022-09-04T07:58:24.500Z,37.85
2022-09-04T08:01:38.192Z,38.20
2022-09-04T08:04:56.613Z,37.93
2022-09-04T08:08:07.204Z,38.01
2022-09-04T08:11:09.062Z,37.89
2022-09-04T08:14:22.201Z,38.07
2022-09-04T08:17:37.180Z,38.05
2022-09-04T08:20:38.557Z,38.11
2022-09-04T08:23:46.294Z,38.02
2022-09-04T08:26:40.403Z,38.13
2022-09-04T08:29:40.608Z,37.79
2022-09-04T08:32:51.931Z,38.04
2022-09-04T08:35:51.802Z,38.35
2022-09-04T08:38:57.156Z,38.14
2022-09-04T08:42:17.542Z,38.02
2022-09-04T08:45:30.321Z,38.17
2022-09-04T08:48:59.239Z,38.13
2022-09-04T08:52:24.018Z,38.29
2022-09-04T08:55:57.366Z,38.25
2022-09-04T08:59:12.264Z,38.45
2022-09-04T09:02:27.314Z,38.39
2022-09-04T09:05:30.547Z,38.48
2022-09-04T09:09:01.672Z,38.39
2022-09-04T09:12:24.017Z,38.47
2022-09-04T09:15:42.193Z,38.51
2022-09-04T09:18:40.485Z,38.54
2022-09-04T09:21:44.252Z,38.50
2022-09-04T09:24:55.014Z,38.60
2022-09-04T09:28:26.622Z,38.56
2022-09-04T09:31:49.434Z,38.56
2022-09-04T09:35:23.123Z,38.43
2022-09-04T09:38:34.837Z,38.63
2022-09-04T09:41:59.551Z,38.44
2022-09-04T09:45:24.267Z,38.54
2022-09-04T09:48:36.638Z,38.95
2022-09-04T09:52:02.629Z,38.99
2022-09-04T09:55:20.024Z,38.92
2022-09-04T09:58:47.425Z,38.74
2022-09-04T10:01:50.657Z,38.52
2022-09-04T10:05:12.586Z,38.79
2022-09-04T10:08:35.572Z,38.67
2022-09-04T10:11:45.892Z,38.34
2022-09-04T10:15:16.567Z,38.63
2022-09-04T10:18:32.928Z,38.81
2022-09-04T10:21:57.165Z,38.46
2022-09-04T10:25:31.103Z,38.17
2022-09-04T10:28:45.323Z,38.33
2022-09-04T10:31:48.239Z,38.14
2022-09-04T10:34:54.386Z,38.27
2022-09-04T10:37:58.291Z,37.88
2022-09-04T10:40:56.664Z,38.08
2022-09-04T10:44:08.739Z,38.24
2022-09-04T10:47:04.532Z,38.23
2022-09-04T10:50:18.790Z,38.34
2022-09-04T10:53:21.178Z,38.30
2022-09-04T10:56:19.671Z,38.10
2022-09-04T10:59:25.081Z,37.79
2022-09-04T11:02:33.455Z,37.42
2022-09-04T11:05:42.261Z,37.59
2022-09-04T11:08:44.802Z,37.84
2022-09-04T11:11:56.718Z,37.96
2022-09-04T11:14:58.572Z,37.94
2022-09-04T11:18:13.258Z,37.97
2022-09-04T11:21:22.796Z,38.31
2022-09-04T11:24:35.268Z,37.63
2022-09-04T11:27:39.983Z,37.95
2022-09-04T11:30:39.981Z,37.55
2022-09-04T11:34:19.115Z,37.90
2022-09-04T11:37:49.205Z,38.34
2022-09-04T11:41:16.852Z,38.08
2022-09-04T11:44:46.722Z,38.20
2022-09-04T11:48:02.552Z,38.05
2022-09-04T11:51:05.610Z,38.11
2022-09-04T11:54:24.572Z,38.12
2022-09-04T11:57:18.365Z,38.21
2022-09-04T12:00:11.476Z,37.99
2022-09-04T12:03:27.278Z,38.37
2022-09-04T12:06:29.328Z,38.26
2022-09-04T12:09:47.818Z,38.67
2022-09-04T12:13:07.627Z,38.52
2022-09-04T12:16:47.237Z,38.59
2022-09-04T12:19:50.634Z,38.39
2022-09-04T12:23:10.104Z,38.43
2022-09-04T12:26:23.112Z,38.79
2022-09-04T12:29:51.516Z,38.66
2022-09-04T12:33:12.177Z,38.63
2022-09-04T12:36:38.854Z,38.43
2022-09-04T12:39:54.116Z,38.26
2022-09-04T12:42:47.626Z,38.50
2022-09-04T12:45:42.065Z,38.31
2022-09-04T12:48:37.562Z,38.58
2022-09-04T12:51:26.577Z,38.27
2022-09-04T12:54:23.195Z,38.06
2022-09-04T12:57:22.507Z,38.30
2022-09-04T13:00:12.420Z,38.28
2022-09-04T13:03:10.459Z,38.23
2022-09-04T13:06:17.842Z,38.08
2022-09-04T13:09:16.440Z,37.92
2022-09-04T13:12:17.834Z,37.75
2022-09-04T13:15:21.848Z,38.05
2022-09-04T13:18:21.293Z,37.68
2022-09-04T13:21:16.505Z,37.81
2022-09-04T13:24:17.250Z,37.86
2022-09-04T13:27:17.419Z,37.40
2022-09-04T13:30:08.501Z,37.87
2022-09-04T13:33:18.534Z,37.25
2022-09-04T13:36:19.238Z,37.29
2022-09-04T13:39:27.877Z,36.94
2022-09-04T13:42:39.619Z,36.96
2022-09-04T13:45:34.473Z,36.93
2022-09-04T13:48:34.561Z,36.85
2022-09-04T13:51:29.784Z,36.90
2022-09-04T13:54:19.982Z,37.13
2022-09-04T13:57:12.145Z,36.69
2022-09-04T14:00:04.252Z,36.41
2022-09-04T14:02:55.924Z,36.99
2022-09-04T14:05:44.540Z,36.94
2022-09-04T14:08:34.728Z,36.40
2022-09-04T14:11:42.473Z,36.33
2022-09-04T14:14:50.237Z,36.55
2022-09-04T14:17:49.525Z,35.97
2022-09-04T14:20:41.432Z,35.93
2022-09-04T14:23:40.692Z,35.89
2022-09-04T14:26:36.265Z,36.46
2022-09-04T14:29:32.478Z,36.05
2022-09-04T14:32:24.512Z,36.35
2022-09-04T14:35:20.967Z,36.24
2022-09-04T14:38:36.388Z,36.03
2022-09-04T14:41:36.135Z,35.90
2022-09-04T14:44:35.730Z,36.20
2022-09-04T14:47:32.888Z,35.90
2022-09-04T14:50:28.494Z,35.61
2022-09-04T14:53:23.192Z,35.97
2022-09-04T14:56:25.223Z,35.78
2022-09-04T14:59:19.756Z,35.27
2022-09-04T15:02:25.545Z,35.36
2022-09-04T15:05:23.064Z,35.77
2022-09-04T15:08:13.029Z,35.86
2022-09-04T15:11:04.264Z,35.63
2022-09-04T15:13:53.852Z,35.46
2022-09-04T15:16:49.308Z,35.40
2022-09-04T15:19:47.465Z,35.83
2022-09-04T15:22:41.876Z,35.80
2022-09-04T15:25:58.314Z,35.18
2022-09-04T15:28:50.293Z,35.30
2022-09-04T15:31:45.523Z,35.80
2022-09-04T15:34:34.714Z,35.63
2022-09-04T15:37:28.257Z,35.32
2022-09-04T15:40:24.774Z,35.62
2022-09-04T15:43:19.097Z,35.83
2022-09-04T15:46:10.834Z,35.66
2022-09-04T15:49:12.799Z,35.55
2022-09-04T15:52:14.130Z,35.56
2022-09-04T15:55:11.876Z,35.41
2022-09-04T15:58:05.717Z,36.01
2022-09-04T16:01:09.716Z,35.61
2022-09-04T16:04:07.327Z,36.34
2022-09-04T16:06:59.097Z,35.68
2022-09-04T16:09:53.101Z,36.46
2022-09-04T16:12:50.804Z,35.81
2022-09-04T16:15:42.672Z,35.79
2022-09-04T16:18:44.809Z,36.26
2022-09-04T16:21:41.285Z,36.12
2022-09-04T16:24:32.041Z,35.95
2022-09-04T16:27:24.365Z,36.11
2022-09-04T16:30:27.288Z,35.81
2022-09-04T16:33:28.203Z,35.87
2022-09-04T16:36:20.286Z,36.19
2022-09-04T16:39:14.269Z,36.17
2022-09-04T16:42:13.797Z,36.44
2022-09-04T16:45:08.472Z,36.38
2022-09-04T16:48:00.433Z,36.38
2022-09-04T16:51:09.881Z,36.64
2022-09-04T16:54:19.158Z,36.55
2022-09-04T16:57:13.994Z,36.28
2022-09-04T17:00:08.571Z,36.45
2022-09-04T17:03:00.350Z,36.22
2022-09-04T17:05:51.379Z,36.49
2022-09-04T17:08:43.785Z,36.40
2022-09-04T17:11:39.775Z,36.52
2022-09-04T17:14:32.890Z,36.58
2022-09-04T17:17:31.457Z,36.80
2022-09-04T17:20:29.211Z,36.86
2022-09-04T17:28:59.007Z,36.73
2022-09-04T17:29:11.749Z,36.87
2022-09-04T17:30:03.622Z,37.00
2022-09-04T17:38:26.924Z,36.92
2022-09-04T17:40:46.674Z,36.43
2022-09-04T17:40:55.713Z,36.97
2022-09-04T17:42:37.290Z,36.73
2022-09-04T17:45:34.524Z,36.87
2022-09-04T17:48:25.300Z,37.01
2022-09-04T17:51:18.558Z,36.92
2022-09-04T17:54:13.435Z,37.02
2022-09-04T17:57:04.666Z,37.05
2022-09-04T18:00:02.479Z,37.31
2022-09-04T18:02:56.490Z,37.30
2022-09-04T18:05:53.170Z,37.09
2022-09-04T18:08:51.413Z,37.31
2022-09-04T18:12:00.622Z,37.20
2022-09-04T18:15:16.492Z,37.32
2022-09-04T18:18:21.360Z,37.33
2022-09-04T18:21:18.443Z,37.24
2022-09-04T18:24:09.054Z,37.11
2022-09-04T18:27:02.838Z,37.24
2022-09-04T18:36:33.669Z,37.25
2022-09-04T18:37:25.135Z,37.46
2022-09-04T18:37:26.391Z,37.54
2022-09-04T18:39:44.611Z,37.41
2022-09-04T18:50:22.853Z,37.41
2022-09-04T18:50:38.513Z,37.68
2022-09-04T18:50:45.515Z,37.62
2022-09-04T18:52:16.367Z,37.32
2022-09-04T18:55:14.367Z,37.49
2022-09-04T18:58:28.271Z,37.60
2022-09-04T19:01:27.417Z,37.95
2022-09-04T19:04:47.655Z,37.74
2022-09-04T19:07:39.590Z,37.56
2022-09-04T19:10:29.827Z,37.87
2022-09-04T19:13:25.215Z,37.64
2022-09-04T19:16:18.641Z,38.06
2022-09-04T19:19:17.227Z,37.81
2022-09-04T19:22:12.352Z,38.06
2022-09-04T19:25:04.866Z,38.18
2022-09-04T19:27:56.966Z,38.21
2022-09-04T19:30:52.101Z,38.22
2022-09-04T19:33:44.920Z,38.25
2022-09-04T19:36:40.301Z,38.49
2022-09-04T19:45:55.414Z,38.85
2022-09-04T19:46:06.480Z,38.90
2022-09-04T19:46:25.997Z,38.79
2022-09-04T19:51:54.101Z,38.72
2022-09-04T19:53:35.615Z,38.77
2022-09-04T19:55:45.175Z,38.70
2022-09-04T19:58:44.000Z,39.06
2022-09-04T20:01:42.555Z,38.75
2022-09-04T20:04:37.224Z,38.72
2022-09-04T20:07:41.483Z,38.78
2022-09-04T20:10:37.300Z,38.92
2022-09-04T20:13:28.023Z,39.13
2022-09-04T20:16:21.690Z,38.88
2022-09-04T20:19:27.959Z,38.93
2022-09-04T20:22:33.923Z,38.87
2022-09-04T20:25:41.411Z,38.86
2022-09-04T20:28:37.787Z,38.94
2022-09-04T20:31:54.478Z,39.02
2022-09-04T20:34:49.496Z,38.97
2022-09-04T20:37:46.114Z,39.02
2022-09-04T20:40:38.797Z,38.79
2022-09-04T20:43:32.858Z,39.22
2022-09-04T20:52:43.257Z,39.05
2022-09-04T20:52:55.064Z,39.20
2022-09-04T20:53:10.574Z,38.94
2022-09-04T20:56:10.733Z,39.06
2022-09-04T21:03:09.574Z,39.35
2022-09-04T21:03:18.530Z,39.45
2022-09-04T21:06:07.631Z,39.50
2022-09-04T21:09:06.357Z,39.33
2022-09-04T21:11:56.873Z,39.46
2022-09-04T21:14:47.927Z,39.20
2022-09-04T21:18:12.131Z,39.64
2022-09-04T21:21:22.210Z,39.37
2022-09-04T21:24:33.761Z,39.54
2022-09-04T21:27:55.525Z,39.45
2022-09-04T21:31:08.910Z,39.45
2022-09-04T21:34:12.445Z,39.70
2022-09-04T21:37:06.817Z,39.45
2022-09-04T21:40:30.978Z,39.71
2022-09-04T21:43:58.030Z,39.67
2022-09-04T21:46:57.992Z,39.73
2022-09-04T21:50:25.326Z,39.74
2022-09-04T21:53:41.021Z,39.68
2022-09-04T22:02:26.785Z,39.63
2022-09-04T22:02:47.934Z,39.67
2022-09-04T22:03:35.916Z,39.56
2022-09-04T22:07:15.095Z,39.44
2022-09-04T22:13:30.627Z,39.49
2022-09-04T22:13:34.731Z,39.54
2022-09-04T22:16:58.300Z,39.56
2022-09-04T22:20:03.931Z,39.42
2022-09-04T22:23:20.113Z,39.76
2022-09-04T22:26:28.932Z,39.47
2022-09-04T22:29:39.894Z,39.70
2022-09-04T22:32:58.568Z,39.39
2022-09-04T22:36:04.150Z,39.24
2022-09-04T22:39:20.968Z,39.90
2022-09-04T22:42:50.818Z,39.72
2022-09-04T22:46:09.362Z,39.70
2022-09-04T22:49:25.631Z,39.71
2022-09-04T22:52:53.878Z,39.74
2022-09-04T22:56:23.117Z,39.88
2022-09-04T22:59:26.854Z,39.72
2022-09-04T23:07:54.765Z,39.69
2022-09-04T23:13:44.859Z,39.84
2022-09-04T23:14:05.141Z,40.00
2022-09-04T23:17:11.642Z,39.61
2022-09-04T23:24:37.785Z,39.82
2022-09-04T23:26:58.403Z,39.87
2022-09-04T23:27:36.556Z,39.88
2022-09-04T23:30:27.684Z,40.07
2022-09-04T23:33:44.312Z,39.94
2022-09-04T23:37:04.203Z,39.59
2022-09-04T23:40:28.739Z,39.82
2022-09-04T23:43:52.848Z,39.80
2022-09-04T23:46:56.492Z,39.73
2022-09-04T23:50:00.875Z,39.99
2022-09-04T23:53:00.036Z,39.77
2022-09-04T23:55:58.578Z,39.73
2022-09-04T23:59:18.964Z,39.91
